15:57
Airports
History
Links
Donate
Help keep this website running!
PayPal
Bitcoin
Information on this page is community maintained and may be outdated or inaccurate and is intended for reference only or PC simulator navigating.
Always use approved charts for navigating.
YGGO
GOONOO GOONOO HS
GOONOO GOONOO HS (YGGO)
Garoo, New South Wales, Australia (2340)
4
Lat/Lng:31° 19' 0.5" S / 150° 54' 59.03" E
-31.316806 / 150.916396
Elevation:1496'ft 456mMSL
ID / ICAO:YGGO
Runways:1
Longest:(12-30) 933.4m 3,062ft Grass
Distance To
Airport ID:
Nearby WeatherUpdated 06-29-17 15:30 GMT
Nearby weather at YSTW, Tamworth located 16.9 nautical miles from YGGO
Altimeter: 30.21
Visibility: 6.2 statute miles
Wind: 8 knots (230°)
Temp: 6°c 43°f
Humidity: 81.0%

METAR: YSTW 291530Z AUTO 23008KT 9999 // NCD 06/03 Q1023 RF00.0/005.8

(Powered by phpweather)
Runway 12 / 30
Dimensions:933.4 x 25m 3062' x 82'ft
Surface:Grass
Runway 12 [A]Runway 30 [B]
Heading:121°TH 301°TH
Lat:
Lng:
31° 18' 52.59"S
150° 54' 44"E
31° 19' 8.41"S
150° 55' 14.05"E
User Notes and Comments
Google Map
Nearby Airports
(C) Tamworth 16.9 NM
YSTW (WX) NNW 345°
(U) Quirindi 26.5 NM
YQDI WSW 241°
4 WAKEFIELD 27.8 NM
YWAF NNW 345°
4 Lake Keepit 37.4 NM
YKEP NW 321°
4 MANILLA 39.7 NM
YMAL NNW 343°
4 ELLERSTON 42.1 NM
YESN SE 146°
4 WALCHA 43.1 NM
YWCH ENE 60°
VFR Chart
Flight Planning at SkyVector.com